createdAt,value
2018-08-30T00:00:42.873Z,101245.73
2018-08-30T00:03:11.985Z,101248.27
2018-08-30T00:05:41.252Z,101249.50
2018-08-30T00:08:10.352Z,101260.95
2018-08-30T00:10:39.199Z,101258.56
2018-08-30T00:13:08.112Z,101255.47
2018-08-30T00:15:36.976Z,101258.03
2018-08-30T00:18:05.852Z,101257.02
2018-08-30T00:20:34.760Z,101262.30
2018-08-30T00:23:03.662Z,101263.17
2018-08-30T00:25:32.556Z,101259.73
2018-08-30T00:28:01.434Z,101259.07
2018-08-30T00:30:30.305Z,101265.22
2018-08-30T00:32:59.140Z,101273.97
2018-08-30T00:35:28.014Z,101269.33
2018-08-30T00:37:56.870Z,101275.31
2018-08-30T00:40:25.722Z,101273.25
2018-08-30T00:42:54.564Z,101286.44
2018-08-30T00:45:23.445Z,101289.12
2018-08-30T00:47:52.288Z,101288.47
2018-08-30T00:50:21.234Z,101290.13
2018-08-30T00:52:50.070Z,101287.23
2018-08-30T00:55:18.920Z,101291.75
2018-08-30T00:57:47.812Z,101296.17
2018-08-30T01:00:16.739Z,101297.70
2018-08-30T01:02:45.603Z,101302.38
2018-08-30T01:05:14.548Z,101303.72
2018-08-30T01:07:43.418Z,101303.17
2018-08-30T01:10:12.276Z,101309.33
2018-08-30T01:12:53.250Z,101313.25
2018-08-30T01:15:23.626Z,101313.39
2018-08-30T01:17:52.569Z,101315.11
2018-08-30T01:20:21.950Z,101317.15
2018-08-30T01:22:50.835Z,101314.23
2018-08-30T01:25:19.809Z,101314.31
2018-08-30T01:27:48.946Z,101317.52
2018-08-30T01:30:18.807Z,101316.48
2018-08-30T01:32:47.700Z,101317.59
2018-08-30T01:35:16.560Z,101309.36
2018-08-30T01:37:45.434Z,101316.13
2018-08-30T01:40:14.326Z,101311.43
2018-08-30T01:42:43.203Z,101309.71
2018-08-30T01:45:12.097Z,101309.05
2018-08-30T01:47:40.971Z,101305.58
2018-08-30T01:50:09.907Z,101312.37
2018-08-30T01:52:38.762Z,101307.91
2018-08-30T01:55:07.657Z,101309.10
2018-08-30T01:57:36.529Z,101312.95
2018-08-30T02:00:05.440Z,101316.13
2018-08-30T02:02:34.307Z,101320.49
2018-08-30T02:05:03.215Z,101321.67
2018-08-30T02:07:32.093Z,101322.00
2018-08-30T02:10:01.084Z,101327.11
2018-08-30T02:12:29.997Z,101322.94
2018-08-30T02:14:58.801Z,101322.56
2018-08-30T02:17:27.671Z,101330.07
2018-08-30T02:19:56.541Z,101331.44
2018-08-30T02:22:25.385Z,101326.80
2018-08-30T02:24:54.251Z,101326.95
2018-08-30T02:27:23.164Z,101328.33
2018-08-30T02:29:52.035Z,101331.06
2018-08-30T02:32:20.946Z,101333.64
2018-08-30T02:34:49.828Z,101328.48
2018-08-30T02:37:18.704Z,101334.47
2018-08-30T02:39:47.578Z,101337.20
2018-08-30T02:42:16.451Z,101333.77
2018-08-30T02:44:45.311Z,101332.56
2018-08-30T02:47:14.185Z,101334.08
2018-08-30T02:49:43.063Z,101337.48
2018-08-30T02:52:11.938Z,101344.98
2018-08-30T02:54:40.818Z,101349.02
2018-08-30T02:57:09.660Z,101347.98
2018-08-30T02:59:38.521Z,101345.66
2018-08-30T03:02:07.409Z,101350.38
2018-08-30T03:04:36.271Z,101352.56
2018-08-30T03:07:05.125Z,101347.59
2018-08-30T03:09:34.025Z,101351.20
2018-08-30T03:12:02.898Z,101347.56
2018-08-30T03:14:31.756Z,101356.07
2018-08-30T03:17:00.632Z,101355.52
2018-08-30T03:19:29.497Z,101362.66
2018-08-30T03:21:58.357Z,101364.02
2018-08-30T03:24:27.224Z,101367.36
2018-08-30T03:26:56.149Z,101373.63
2018-08-30T03:29:25.024Z,101375.65
2018-08-30T03:31:53.922Z,101375.65
2018-08-30T03:34:22.768Z,101374.64
2018-08-30T03:36:51.641Z,101381.11
2018-08-30T03:39:20.484Z,101388.14
2018-08-30T03:41:49.357Z,101386.83
2018-08-30T03:44:18.223Z,101383.25
2018-08-30T03:46:47.099Z,101393.00
2018-08-30T03:49:15.928Z,101389.92
2018-08-30T03:51:44.818Z,101394.52
2018-08-30T03:54:13.685Z,101398.52
2018-08-30T03:56:42.570Z,101399.03
2018-08-30T03:59:11.482Z,101401.95
2018-08-30T04:01:40.362Z,101409.09
2018-08-30T04:04:09.229Z,101410.47
2018-08-30T04:06:38.070Z,101417.28
2018-08-30T04:09:08.032Z,101428.52
2018-08-30T04:11:36.962Z,101423.14
2018-08-30T04:14:05.897Z,101421.56
2018-08-30T04:16:34.768Z,101426.18
2018-08-30T04:19:07.723Z,101423.80
2018-08-30T04:21:37.298Z,101428.39
2018-08-30T04:24:07.569Z,101428.98
2018-08-30T04:26:36.423Z,101426.18
2018-08-30T04:29:05.390Z,101425.96
2018-08-30T04:31:34.425Z,101431.73
2018-08-30T04:34:03.163Z,101435.72
2018-08-30T04:36:32.044Z,101438.59
2018-08-30T04:39:00.915Z,101439.23
2018-08-30T04:41:29.785Z,101440.75
2018-08-30T04:43:58.664Z,101445.91
2018-08-30T04:46:27.527Z,101447.27
2018-08-30T04:48:56.413Z,101451.22
2018-08-30T04:51:25.278Z,101454.45
2018-08-30T04:53:54.163Z,101456.77
2018-08-30T04:56:23.025Z,101460.42
2018-08-30T04:58:51.863Z,101466.38
2018-08-30T05:01:20.749Z,101468.98
2018-08-30T05:03:49.618Z,101475.31
2018-08-30T05:06:18.480Z,101474.80
2018-08-30T05:08:47.366Z,101472.08
2018-08-30T05:11:16.238Z,101482.14
2018-08-30T05:13:45.127Z,101480.98
2018-08-30T05:16:14.000Z,101485.47
2018-08-30T05:18:42.865Z,101480.47
2018-08-30T05:21:11.757Z,101480.77
2018-08-30T05:23:40.631Z,101480.63
2018-08-30T05:26:09.547Z,101487.75
2018-08-30T05:28:38.437Z,101481.13
2018-08-30T05:31:07.316Z,101489.99
2018-08-30T05:36:14.053Z,101494.75
2018-08-30T05:38:42.916Z,101494.30
2018-08-30T05:41:11.750Z,101500.44
2018-08-30T05:43:40.584Z,101501.66
2018-08-30T05:46:09.503Z,101504.59
2018-08-30T05:48:38.380Z,101503.84
2018-08-30T05:51:07.842Z,101518.17
2018-08-30T05:53:36.713Z,101516.15
2018-08-30T05:56:05.578Z,101510.89
2018-08-30T05:58:34.456Z,101506.10
2018-08-30T06:01:03.350Z,101504.94
2018-08-30T06:03:32.165Z,101504.67
2018-08-30T06:06:01.029Z,101503.19
2018-08-30T06:08:29.975Z,101507.14
2018-08-30T06:10:58.737Z,101510.08
2018-08-30T06:13:27.583Z,101508.41
2018-08-30T06:15:56.414Z,101513.72
2018-08-30T06:18:25.271Z,101518.05
2018-08-30T06:20:54.130Z,101515.52
2018-08-30T06:23:22.960Z,101517.24
2018-08-30T06:25:51.949Z,101520.22
2018-08-30T06:28:20.748Z,101512.83
2018-08-30T06:30:49.619Z,101516.30
2018-08-30T06:33:18.575Z,101524.59
2018-08-30T06:35:47.440Z,101523.38
2018-08-30T06:38:16.293Z,101530.38
2018-08-30T06:40:45.132Z,101523.34
2018-08-30T06:43:13.970Z,101527.02
2018-08-30T06:45:42.859Z,101523.81
2018-08-30T06:48:11.716Z,101523.19
2018-08-30T06:50:40.545Z,101521.79
2018-08-30T06:53:09.392Z,101519.37
2018-08-30T06:55:38.273Z,101524.72
2018-08-30T06:58:07.114Z,101524.92
2018-08-30T07:00:36.118Z,101524.23
2018-08-30T07:03:05.965Z,101531.78
2018-08-30T07:05:34.834Z,101531.94
2018-08-30T07:08:03.711Z,101533.46
2018-08-30T07:10:32.578Z,101536.59
2018-08-30T07:13:01.783Z,101550.99
2018-08-30T07:15:30.631Z,101550.45
2018-08-30T07:17:59.465Z,101551.86
2018-08-30T07:20:28.341Z,101558.53
2018-08-30T07:22:57.161Z,101561.58
2018-08-30T07:25:26.024Z,101564.83
2018-08-30T07:27:54.935Z,101562.39
2018-08-30T07:30:23.771Z,101567.81
2018-08-30T07:32:52.653Z,101572.24
2018-08-30T07:35:21.513Z,101570.98
2018-08-30T07:37:50.369Z,101566.59
2018-08-30T07:40:19.295Z,101583.06
2018-08-30T07:42:48.155Z,101578.05
2018-08-30T07:45:16.968Z,101580.62
2018-08-30T07:47:45.837Z,101581.26
2018-08-30T07:50:14.701Z,101588.27
2018-08-30T07:52:43.523Z,101593.70
2018-08-30T07:55:12.400Z,101587.19
2018-08-30T07:57:41.285Z,101587.06
2018-08-30T08:00:10.155Z,101598.55
2018-08-30T08:02:39.026Z,101595.45
2018-08-30T08:05:07.876Z,101592.40
2018-08-30T08:07:36.794Z,101600.38
2018-08-30T08:10:05.763Z,101599.13
2018-08-30T08:12:34.664Z,101597.70
2018-08-30T08:15:03.433Z,101608.66
2018-08-30T08:17:32.312Z,101605.61
2018-08-30T08:20:01.126Z,101605.17
2018-08-30T08:22:29.993Z,101610.13
2018-08-30T08:24:58.833Z,101608.59
2018-08-30T08:27:27.776Z,101607.70
2018-08-30T08:29:56.621Z,101604.79
2018-08-30T08:32:25.462Z,101614.25
2018-08-30T08:34:54.332Z,101607.39
2018-08-30T08:37:23.195Z,101612.54
2018-08-30T08:39:52.008Z,101614.05
2018-08-30T08:42:20.863Z,101616.37
2018-08-30T08:44:49.691Z,101619.82
2018-08-30T08:47:18.532Z,101620.67
2018-08-30T08:49:47.394Z,101621.31
2018-08-30T08:52:16.688Z,101621.31
2018-08-30T08:54:45.545Z,101628.53
2018-08-30T08:57:14.407Z,101621.51
2018-08-30T08:59:43.240Z,101626.25
2018-08-30T09:02:12.089Z,101620.58
2018-08-30T09:04:40.948Z,101620.72
2018-08-30T09:07:10.047Z,101624.42
2018-08-30T09:09:38.773Z,101637.59
2018-08-30T09:12:07.619Z,101644.31
2018-08-30T09:14:36.489Z,101647.50
2018-08-30T09:17:05.331Z,101656.07
2018-08-30T09:19:34.157Z,101648.04
2018-08-30T09:22:03.087Z,101655.49
2018-08-30T09:24:31.916Z,101657.64
2018-08-30T09:27:00.785Z,101659.19
2018-08-30T09:29:29.594Z,101655.86
2018-08-30T09:31:58.423Z,101656.23
2018-08-30T09:34:27.285Z,101655.64
2018-08-30T09:36:56.133Z,101655.27
2018-08-30T09:39:24.970Z,101658.31
2018-08-30T09:41:53.855Z,101656.07
2018-08-30T09:44:22.682Z,101656.71
2018-08-30T09:46:51.521Z,101662.23
2018-08-30T09:49:20.416Z,101659.17
2018-08-30T09:51:49.215Z,101660.95
2018-08-30T09:54:18.103Z,101663.77
2018-08-30T09:56:47.098Z,101653.58
2018-08-30T09:59:15.863Z,101652.12
2018-08-30T10:02:01.488Z,101649.64
2018-08-30T10:04:31.015Z,101659.19
2018-08-30T10:06:59.855Z,101651.27
2018-08-30T10:09:28.687Z,101653.64
2018-08-30T10:11:57.542Z,101654.22
2018-08-30T10:14:27.881Z,101645.06
2018-08-30T10:16:56.612Z,101651.39
2018-08-30T10:19:25.486Z,101652.86
2018-08-30T10:21:54.337Z,101659.50
2018-08-30T10:24:23.223Z,101654.09
2018-08-30T10:26:52.070Z,101658.16
2018-08-30T10:29:20.981Z,101656.91
2018-08-30T10:31:49.828Z,101659.82
2018-08-30T10:34:18.688Z,101661.89
2018-08-30T10:36:47.685Z,101671.31
2018-08-30T10:39:16.540Z,101670.58
2018-08-30T10:41:45.444Z,101667.53
2018-08-30T10:44:14.371Z,101669.92
2018-08-30T10:46:43.239Z,101659.04
2018-08-30T10:49:12.075Z,101664.19
2018-08-30T10:51:40.905Z,101666.50
2018-08-30T10:54:09.804Z,101669.22
2018-08-30T10:56:38.685Z,101663.08
2018-08-30T10:59:07.619Z,101674.06
2018-08-30T11:01:36.478Z,101673.06
2018-08-30T11:04:05.683Z,101674.56
2018-08-30T11:06:34.510Z,101665.56
2018-08-30T11:09:03.491Z,101665.55
2018-08-30T11:11:32.236Z,101676.33
2018-08-30T11:14:01.090Z,101680.20
2018-08-30T11:16:29.943Z,101676.19
2018-08-30T11:18:58.868Z,101679.61
2018-08-30T11:21:27.795Z,101676.77
2018-08-30T11:23:56.686Z,101674.92
2018-08-30T11:26:25.648Z,101677.63
2018-08-30T11:28:54.574Z,101676.30
2018-08-30T11:31:23.433Z,101676.05
2018-08-30T11:33:52.266Z,101675.83
2018-08-30T11:36:21.197Z,101678.34
2018-08-30T11:38:50.090Z,101668.69
2018-08-30T11:41:18.976Z,101676.77
2018-08-30T11:43:48.064Z,101674.78
2018-08-30T11:46:17.016Z,101674.93
2018-08-30T11:48:45.848Z,101684.80
2018-08-30T11:51:16.493Z,101676.38
2018-08-30T11:53:45.784Z,101686.89
2018-08-30T11:56:14.684Z,101684.45
2018-08-30T11:58:43.522Z,101692.38
2018-08-30T12:01:12.403Z,101686.40
2018-08-30T12:03:41.398Z,101685.83
2018-08-30T12:06:11.178Z,101686.38
2018-08-30T12:08:39.999Z,101682.45
2018-08-30T12:11:09.105Z,101689.62
2018-08-30T12:13:37.760Z,101703.03
2018-08-30T12:16:06.625Z,101691.88
2018-08-30T12:18:35.475Z,101692.80
2018-08-30T12:21:04.453Z,101703.25
2018-08-30T12:23:33.336Z,101702.69
2018-08-30T12:26:02.276Z,101695.11
2018-08-30T12:28:31.175Z,101691.79
2018-08-30T12:31:01.003Z,101691.31
2018-08-30T12:33:29.839Z,101689.33
2018-08-30T12:35:58.855Z,101679.69
2018-08-30T12:38:27.602Z,101682.58
2018-08-30T12:40:56.530Z,101683.38
2018-08-30T12:43:25.593Z,101685.97
2018-08-30T12:45:54.339Z,101687.34
2018-08-30T12:48:23.187Z,101691.83
2018-08-30T12:50:52.161Z,101694.97
2018-08-30T12:53:21.028Z,101691.58
2018-08-30T12:55:49.754Z,101694.89
2018-08-30T12:58:18.701Z,101687.59
2018-08-30T13:00:47.757Z,101690.76
2018-08-30T13:03:16.706Z,101691.55
2018-08-30T13:05:45.827Z,101685.27
2018-08-30T13:08:14.564Z,101682.29
2018-08-30T13:10:43.569Z,101684.64
2018-08-30T13:13:12.519Z,101692.58
2018-08-30T13:15:41.415Z,101687.36
2018-08-30T13:18:10.400Z,101682.66
2018-08-30T13:20:39.530Z,101680.33
2018-08-30T13:23:08.209Z,101688.01
2018-08-30T13:25:37.194Z,101684.46
2018-08-30T13:28:05.989Z,101699.00
2018-08-30T13:30:35.051Z,101695.34
2018-08-30T13:33:03.936Z,101700.46
2018-08-30T13:35:32.500Z,101695.13
2018-08-30T13:38:01.875Z,101684.16
2018-08-30T13:40:30.488Z,101695.00
2018-08-30T13:42:59.449Z,101702.57
2018-08-30T13:45:28.475Z,101698.59
2018-08-30T13:47:57.465Z,101694.55
2018-08-30T13:50:26.295Z,101696.92
2018-08-30T13:52:55.049Z,101701.44
2018-08-30T13:55:24.403Z,101699.20
2018-08-30T13:57:53.320Z,101700.90
2018-08-30T14:00:24.074Z,101702.23
2018-08-30T14:02:52.716Z,101700.80
2018-08-30T14:05:21.933Z,101703.73
2018-08-30T14:07:50.511Z,101711.05
2018-08-30T14:10:19.785Z,101707.19
2018-08-30T14:12:49.036Z,101707.03
2018-08-30T14:15:18.400Z,101709.08
2018-08-30T14:17:46.776Z,101706.54
2018-08-30T14:20:18.549Z,101703.81
2018-08-30T14:22:54.872Z,101706.05
2018-08-30T14:25:26.563Z,101711.05
2018-08-30T14:27:55.821Z,101713.42
2018-08-30T14:30:27.209Z,101708.66
2018-08-30T14:32:56.431Z,101721.48
2018-08-30T14:35:25.562Z,101711.80
2018-08-30T14:37:57.422Z,101713.05
2018-08-30T14:44:13.277Z,101717.11
2018-08-30T14:46:51.081Z,101707.92
2018-08-30T14:49:22.934Z,101709.31
2018-08-30T14:51:52.179Z,101709.34
2018-08-30T14:54:21.114Z,101719.80
2018-08-30T14:56:50.178Z,101731.23
2018-08-30T14:59:52.875Z,101722.94
2018-08-30T15:02:21.889Z,101718.75
2018-08-30T15:04:50.759Z,101713.98
2018-08-30T15:07:19.593Z,101719.39
2018-08-30T15:09:48.423Z,101721.73
2018-08-30T15:12:17.328Z,101716.41
2018-08-30T15:14:46.200Z,101708.63
2018-08-30T15:17:15.043Z,101706.67
2018-08-30T15:19:43.925Z,101719.83
2018-08-30T15:22:12.813Z,101716.07
2018-08-30T15:24:41.784Z,101727.93
2018-08-30T15:27:10.972Z,101723.03
2018-08-30T15:29:40.143Z,101726.03
2018-08-30T15:32:08.899Z,101723.12
2018-08-30T15:34:37.764Z,101725.95
2018-08-30T15:37:06.581Z,101734.95
2018-08-30T15:39:35.488Z,101723.70
2018-08-30T15:42:04.268Z,101733.91
2018-08-30T15:44:33.089Z,101738.70
2018-08-30T15:47:01.949Z,101742.61
2018-08-30T15:49:30.817Z,101738.53
2018-08-30T15:51:59.675Z,101740.75
2018-08-30T15:54:28.537Z,101737.11
2018-08-30T15:56:57.565Z,101741.29
2018-08-30T15:59:26.326Z,101740.55
2018-08-30T16:01:55.048Z,101741.95
2018-08-30T16:04:23.887Z,101743.59
2018-08-30T16:06:52.840Z,101740.27
2018-08-30T16:09:21.570Z,101746.09
2018-08-30T16:11:50.420Z,101750.20
2018-08-30T16:14:19.244Z,101749.70
2018-08-30T16:16:48.080Z,101746.61
2018-08-30T16:19:16.938Z,101752.41
2018-08-30T16:21:45.772Z,101746.34
2018-08-30T16:24:14.693Z,101753.23
2018-08-30T16:26:43.453Z,101746.81
2018-08-30T16:29:12.322Z,101744.45
2018-08-30T16:31:41.117Z,101759.17
2018-08-30T16:34:09.955Z,101746.88
2018-08-30T16:36:38.797Z,101752.45
2018-08-30T16:39:09.107Z,101754.48
2018-08-30T16:41:37.980Z,101758.00
2018-08-30T16:44:06.876Z,101758.32
2018-08-30T16:46:35.708Z,101758.55
2018-08-30T16:49:04.644Z,101758.39
2018-08-30T16:51:33.465Z,101762.33
2018-08-30T16:54:02.310Z,101757.69
2018-08-30T16:56:31.138Z,101762.63
2018-08-30T16:59:00.089Z,101762.61
2018-08-30T17:01:28.937Z,101763.98
2018-08-30T17:03:57.776Z,101766.23
2018-08-30T17:06:26.783Z,101769.69
2018-08-30T17:08:55.541Z,101758.39
2018-08-30T17:11:24.382Z,101764.30
2018-08-30T17:13:53.232Z,101760.55
2018-08-30T17:16:22.068Z,101763.83
2018-08-30T17:18:52.883Z,101773.82
2018-08-30T17:21:21.705Z,101770.42
2018-08-30T17:23:50.534Z,101767.68
2018-08-30T17:26:19.368Z,101773.19
2018-08-30T17:28:48.206Z,101771.64
2018-08-30T17:31:17.105Z,101772.87
2018-08-30T17:33:45.889Z,101775.66
2018-08-30T17:36:14.727Z,101772.57
2018-08-30T17:38:43.762Z,101769.68
2018-08-30T17:41:12.494Z,101771.58
2018-08-30T17:43:41.315Z,101769.57
2018-08-30T17:46:10.186Z,101774.23
2018-08-30T17:48:39.000Z,101777.34
2018-08-30T17:51:07.870Z,101774.74
2018-08-30T17:53:36.735Z,101777.50
2018-08-30T17:56:05.915Z,101778.87
2018-08-30T17:58:34.664Z,101784.88
2018-08-30T18:01:03.517Z,101780.39
2018-08-30T18:03:32.354Z,101783.81
2018-08-30T18:06:01.183Z,101781.40
2018-08-30T18:08:30.008Z,101787.73
2018-08-30T18:10:58.864Z,101781.06
2018-08-30T18:13:27.712Z,101789.10
2018-08-30T18:15:56.543Z,101785.69
2018-08-30T18:18:25.415Z,101791.97
2018-08-30T18:20:54.230Z,101790.98
2018-08-30T18:23:23.066Z,101796.88
2018-08-30T18:25:51.930Z,101796.84
2018-08-30T18:28:20.777Z,101790.47
2018-08-30T18:30:49.636Z,101797.49
2018-08-30T18:33:18.462Z,101799.66
2018-08-30T18:35:47.312Z,101804.88
2018-08-30T18:38:16.130Z,101808.25
2018-08-30T18:40:44.956Z,101810.03
2018-08-30T18:43:13.824Z,101814.57
2018-08-30T18:45:42.672Z,101809.75
2018-08-30T18:48:11.511Z,101817.78
2018-08-30T18:50:40.400Z,101820.66
2018-08-30T18:53:09.262Z,101816.95
2018-08-30T18:55:38.081Z,101825.55
2018-08-30T18:58:06.921Z,101827.56
2018-08-30T19:00:35.756Z,101830.17
2018-08-30T19:03:04.601Z,101828.53
2018-08-30T19:05:33.435Z,101828.22
2018-08-30T19:08:02.276Z,101832.20
2018-08-30T19:10:31.101Z,101835.89
2018-08-30T19:12:59.945Z,101835.23
2018-08-30T19:15:46.596Z,101837.95
2018-08-30T19:18:33.193Z,101837.50
2018-08-30T19:21:02.048Z,101848.41
2018-08-30T19:23:30.869Z,101844.30
2018-08-30T19:25:59.703Z,101847.63
2018-08-30T19:28:28.555Z,101854.83
2018-08-30T19:30:57.374Z,101854.23
2018-08-30T19:33:26.238Z,101850.47
2018-08-30T19:36:13.197Z,101857.97
2018-08-30T19:38:42.108Z,101857.27
2018-08-30T19:41:21.123Z,101852.88
2018-08-30T19:43:51.039Z,101855.15
2018-08-30T19:46:20.443Z,101849.93
2018-08-30T19:48:49.290Z,101852.41
2018-08-30T19:51:18.146Z,101850.97
2018-08-30T19:53:46.997Z,101850.20
2018-08-30T19:56:16.083Z,101856.82
2018-08-30T19:58:44.935Z,101865.16
2018-08-30T20:01:13.798Z,101865.38
2018-08-30T20:03:42.631Z,101868.39
2018-08-30T20:06:11.505Z,101869.14
2018-08-30T20:08:40.382Z,101868.55
2018-08-30T20:11:09.291Z,101869.42
2018-08-30T20:13:38.136Z,101867.33
2018-08-30T20:16:06.980Z,101866.64
2018-08-30T20:18:35.809Z,101872.39
2018-08-30T20:21:04.649Z,101870.94
2018-08-30T20:23:33.859Z,101874.13
2018-08-30T20:26:03.556Z,101869.69
2018-08-30T20:28:32.939Z,101875.83
2018-08-30T20:31:01.769Z,101871.66
2018-08-30T20:33:30.635Z,101870.37
2018-08-30T20:35:59.523Z,101870.02
2018-08-30T20:38:28.390Z,101876.47
2018-08-30T20:40:57.279Z,101875.30
2018-08-30T20:43:26.069Z,101871.76
2018-08-30T20:45:54.909Z,101874.88
2018-08-30T20:48:23.763Z,101875.18
2018-08-30T20:50:52.609Z,101879.84
2018-08-30T20:53:21.471Z,101873.79
2018-08-30T20:55:50.334Z,101876.23
2018-08-30T20:58:19.250Z,101883.55
2018-08-30T21:00:48.116Z,101878.50
2018-08-30T21:03:16.959Z,101874.38
2018-08-30T21:05:45.830Z,101879.64
2018-08-30T21:08:14.661Z,101878.45
2018-08-30T21:10:43.496Z,101879.29
2018-08-30T21:13:12.357Z,101881.49
2018-08-30T21:15:41.191Z,101878.59
2018-08-30T21:18:10.021Z,101878.63
2018-08-30T21:20:38.853Z,101877.03
2018-08-30T21:23:07.712Z,101880.39
2018-08-30T21:25:36.539Z,101876.56
2018-08-30T21:28:05.731Z,101879.29
2018-08-30T21:30:34.604Z,101876.53
2018-08-30T21:33:03.479Z,101880.22
2018-08-30T21:35:32.341Z,101882.70
2018-08-30T21:38:01.175Z,101876.34
2018-08-30T21:40:30.061Z,101878.81
2018-08-30T21:42:58.891Z,101876.34
2018-08-30T21:45:27.749Z,101873.48
2018-08-30T21:47:56.599Z,101874.37
2018-08-30T21:50:25.517Z,101873.13
2018-08-30T21:52:54.324Z,101874.77
2018-08-30T21:55:23.173Z,101878.66
2018-08-30T21:57:52.005Z,101880.46
2018-08-30T22:00:20.845Z,101882.73
2018-08-30T22:02:49.818Z,101880.64
2018-08-30T22:05:18.538Z,101869.66
2018-08-30T22:07:47.382Z,101880.72
2018-08-30T22:10:16.219Z,101876.94
2018-08-30T22:12:45.074Z,101880.21
2018-08-30T22:15:13.908Z,101885.16
2018-08-30T22:17:42.752Z,101877.67
2018-08-30T22:20:11.572Z,101876.61
2018-08-30T22:22:40.420Z,101879.22
2018-08-30T22:25:09.265Z,101878.60
2018-08-30T22:27:38.170Z,101883.54
2018-08-30T22:30:08.689Z,101876.42
2018-08-30T22:32:37.566Z,101878.77
2018-08-30T22:35:06.846Z,101875.48
2018-08-30T22:37:36.100Z,101882.16
2018-08-30T22:40:05.362Z,101876.47
2018-08-30T22:42:34.145Z,101881.58
2018-08-30T22:45:03.617Z,101879.48
2018-08-30T22:47:32.669Z,101886.53
2018-08-30T22:50:01.535Z,101884.43
2018-08-30T22:52:30.455Z,101881.96
2018-08-30T22:54:59.292Z,101881.47
2018-08-30T22:57:28.213Z,101887.56
2018-08-30T22:59:57.026Z,101885.70
2018-08-30T23:02:25.866Z,101886.23
2018-08-30T23:04:55.614Z,101883.84
2018-08-30T23:07:24.475Z,101883.56
2018-08-30T23:09:53.338Z,101881.50
2018-08-30T23:12:22.202Z,101883.14
2018-08-30T23:14:51.057Z,101880.17
2018-08-30T23:17:19.893Z,101877.50
2018-08-30T23:19:48.784Z,101876.14
2018-08-30T23:22:17.614Z,101882.47
2018-08-30T23:24:46.515Z,101876.66
2018-08-30T23:27:15.375Z,101871.94
2018-08-30T23:29:44.202Z,101873.94
2018-08-30T23:32:13.038Z,101880.87
2018-08-30T23:34:41.887Z,101879.14
2018-08-30T23:37:10.733Z,101874.44
2018-08-30T23:39:39.575Z,101871.63
2018-08-30T23:42:08.428Z,101875.94
2018-08-30T23:44:37.315Z,101864.44
2018-08-30T23:47:06.230Z,101873.23
2018-08-30T23:49:35.069Z,101873.94
2018-08-30T23:52:03.909Z,101875.31
2018-08-30T23:54:32.837Z,101875.56
2018-08-30T23:57:01.680Z,101877.31
